sensor_id;sensor_type;location;lat;lon;timestamp;P1;durP1;ratioP1;P2;durP2;ratioP2
56299;SDS011;42209;6.376;-10.782;2023-02-14T00:01:26;15.35;;;8.55;;
56299;SDS011;42209;6.376;-10.782;2023-02-14T00:03:54;18.00;;;8.30;;
56299;SDS011;42209;6.376;-10.782;2023-02-14T00:06:23;12.52;;;7.55;;
56299;SDS011;42209;6.376;-10.782;2023-02-14T00:08:51;14.18;;;7.28;;
56299;SDS011;42209;6.376;-10.782;2023-02-14T00:11:19;13.90;;;8.65;;
56299;SDS011;42209;6.376;-10.782;2023-02-14T00:13:47;16.10;;;9.15;;
56299;SDS011;42209;6.376;-10.782;2023-02-14T00:16:16;17.00;;;8.32;;
56299;SDS011;42209;6.376;-10.782;2023-02-14T00:18:44;16.48;;;8.93;;
56299;SDS011;42209;6.376;-10.782;2023-02-14T00:21:12;16.75;;;8.02;;
56299;SDS011;42209;6.376;-10.782;2023-02-14T00:23:40;18.63;;;8.18;;
56299;SDS011;42209;6.376;-10.782;2023-02-14T00:26:12;17.55;;;8.55;;
56299;SDS011;42209;6.376;-10.782;2023-02-14T00:28:42;14.32;;;8.50;;
56299;SDS011;42209;6.376;-10.782;2023-02-14T00:31:10;19.33;;;9.57;;
56299;SDS011;42209;6.376;-10.782;2023-02-14T00:33:39;17.00;;;9.85;;
56299;SDS011;42209;6.376;-10.782;2023-02-14T00:36:08;18.23;;;10.15;;
56299;SDS011;42209;6.376;-10.782;2023-02-14T00:38:37;17.20;;;9.82;;
56299;SDS011;42209;6.376;-10.782;2023-02-14T00:41:07;18.80;;;9.95;;
56299;SDS011;42209;6.376;-10.782;2023-02-14T00:43:35;21.27;;;10.45;;
56299;SDS011;42209;6.376;-10.782;2023-02-14T00:46:03;20.30;;;11.13;;
56299;SDS011;42209;6.376;-10.782;2023-02-14T00:48:32;18.48;;;11.35;;
56299;SDS011;42209;6.376;-10.782;2023-02-14T00:51:01;22.33;;;12.18;;
56299;SDS011;42209;6.376;-10.782;2023-02-14T00:53:29;19.90;;;11.63;;
56299;SDS011;42209;6.376;-10.782;2023-02-14T00:55:57;22.98;;;11.95;;
56299;SDS011;42209;6.376;-10.782;2023-02-14T00:58:25;22.00;;;12.77;;
56299;SDS011;42209;6.376;-10.782;2023-02-14T01:00:54;22.23;;;12.40;;
56299;SDS011;42209;6.376;-10.782;2023-02-14T01:03:23;20.08;;;11.13;;
56299;SDS011;42209;6.376;-10.782;2023-02-14T01:05:52;19.83;;;12.63;;
56299;SDS011;42209;6.376;-10.782;2023-02-14T01:08:22;22.08;;;11.38;;
56299;SDS011;42209;6.376;-10.782;2023-02-14T01:10:50;21.75;;;12.57;;
56299;SDS011;42209;6.376;-10.782;2023-02-14T01:13:19;20.35;;;11.52;;
56299;SDS011;42209;6.376;-10.782;2023-02-14T01:18:17;18.15;;;10.70;;
56299;SDS011;42209;6.376;-10.782;2023-02-14T01:20:47;22.35;;;11.80;;
56299;SDS011;42209;6.376;-10.782;2023-02-14T01:23:15;22.52;;;12.20;;
56299;SDS011;42209;6.376;-10.782;2023-02-14T01:25:43;19.73;;;11.75;;
56299;SDS011;42209;6.376;-10.782;2023-02-14T01:28:12;22.13;;;11.77;;
56299;SDS011;42209;6.376;-10.782;2023-02-14T01:30:40;22.25;;;11.80;;
56299;SDS011;42209;6.376;-10.782;2023-02-14T01:33:08;21.45;;;11.18;;
56299;SDS011;42209;6.376;-10.782;2023-02-14T01:35:37;20.08;;;12.02;;
56299;SDS011;42209;6.376;-10.782;2023-02-14T01:38:05;19.00;;;11.20;;
56299;SDS011;42209;6.376;-10.782;2023-02-14T01:40:34;21.48;;;10.73;;
56299;SDS011;42209;6.376;-10.782;2023-02-14T01:43:16;22.13;;;13.23;;
56299;SDS011;42209;6.376;-10.782;2023-02-14T01:45:44;19.80;;;12.35;;
56299;SDS011;42209;6.376;-10.782;2023-02-14T01:48:12;24.25;;;12.43;;
56299;SDS011;42209;6.376;-10.782;2023-02-14T01:50:42;22.05;;;12.15;;
56299;SDS011;42209;6.376;-10.782;2023-02-14T01:53:16;22.70;;;12.60;;
56299;SDS011;42209;6.376;-10.782;2023-02-14T01:55:50;21.02;;;12.07;;
56299;SDS011;42209;6.376;-10.782;2023-02-14T01:58:29;22.60;;;12.38;;
56299;SDS011;42209;6.376;-10.782;2023-02-14T02:01:01;25.13;;;12.68;;
56299;SDS011;42209;6.376;-10.782;2023-02-14T02:03:33;20.77;;;11.52;;
56299;SDS011;42209;6.376;-10.782;2023-02-14T02:06:19;22.67;;;11.68;;
56299;SDS011;42209;6.376;-10.782;2023-02-14T02:09:06;20.65;;;11.45;;
56299;SDS011;42209;6.376;-10.782;2023-02-14T02:11:39;20.63;;;11.32;;
56299;SDS011;42209;6.376;-10.782;2023-02-14T02:14:11;19.67;;;10.68;;
56299;SDS011;42209;6.376;-10.782;2023-02-14T02:28:57;24.55;;;11.05;;
56299;SDS011;42209;6.376;-10.782;2023-02-14T02:38:23;18.63;;;10.50;;
56299;SDS011;42209;6.376;-10.782;2023-02-14T02:40:54;18.95;;;11.18;;
56299;SDS011;42209;6.376;-10.782;2023-02-14T02:51:46;18.52;;;10.40;;
56299;SDS011;42209;6.376;-10.782;2023-02-14T02:54:32;18.23;;;10.48;;
56299;SDS011;42209;6.376;-10.782;2023-02-14T02:57:06;17.30;;;10.00;;
56299;SDS011;42209;6.376;-10.782;2023-02-14T02:59:43;18.85;;;10.50;;
56299;SDS011;42209;6.376;-10.782;2023-02-14T03:02:15;17.45;;;10.57;;
56299;SDS011;42209;6.376;-10.782;2023-02-14T03:04:55;19.63;;;10.05;;
56299;SDS011;42209;6.376;-10.782;2023-02-14T03:07:34;18.40;;;10.15;;
56299;SDS011;42209;6.376;-10.782;2023-02-14T03:10:17;18.83;;;10.68;;
56299;SDS011;42209;6.376;-10.782;2023-02-14T03:23:41;16.77;;;9.70;;
56299;SDS011;42209;6.376;-10.782;2023-02-14T03:26:32;19.08;;;9.98;;
56299;SDS011;42209;6.376;-10.782;2023-02-14T03:34:44;18.17;;;9.43;;
56299;SDS011;42209;6.376;-10.782;2023-02-14T03:37:14;17.23;;;8.82;;
56299;SDS011;42209;6.376;-10.782;2023-02-14T03:39:53;15.20;;;9.20;;
56299;SDS011;42209;6.376;-10.782;2023-02-14T03:42:29;17.80;;;10.43;;
56299;SDS011;42209;6.376;-10.782;2023-02-14T03:45:02;15.35;;;8.57;;
56299;SDS011;42209;6.376;-10.782;2023-02-14T03:47:34;14.75;;;8.57;;
56299;SDS011;42209;6.376;-10.782;2023-02-14T03:50:06;17.58;;;10.43;;
56299;SDS011;42209;6.376;-10.782;2023-02-14T03:52:38;18.70;;;10.55;;
56299;SDS011;42209;6.376;-10.782;2023-02-14T03:55:08;17.83;;;9.43;;
56299;SDS011;42209;6.376;-10.782;2023-02-14T04:00:35;15.45;;;8.85;;
56299;SDS011;42209;6.376;-10.782;2023-02-14T04:03:08;14.80;;;8.98;;
56299;SDS011;42209;6.376;-10.782;2023-02-14T04:05:38;16.20;;;9.30;;
56299;SDS011;42209;6.376;-10.782;2023-02-14T04:08:08;14.13;;;8.80;;
56299;SDS011;42209;6.376;-10.782;2023-02-14T04:10:37;14.50;;;9.73;;
56299;SDS011;42209;6.376;-10.782;2023-02-14T04:13:06;14.50;;;7.57;;
56299;SDS011;42209;6.376;-10.782;2023-02-14T04:15:34;17.98;;;10.35;;
56299;SDS011;42209;6.376;-10.782;2023-02-14T04:18:03;13.65;;;8.95;;
56299;SDS011;42209;6.376;-10.782;2023-02-14T04:20:31;18.52;;;9.43;;
56299;SDS011;42209;6.376;-10.782;2023-02-14T04:25:29;16.75;;;9.10;;
56299;SDS011;42209;6.376;-10.782;2023-02-14T04:27:57;16.98;;;9.27;;
56299;SDS011;42209;6.376;-10.782;2023-02-14T04:30:26;13.98;;;8.50;;
56299;SDS011;42209;6.376;-10.782;2023-02-14T04:32:54;13.68;;;8.32;;
56299;SDS011;42209;6.376;-10.782;2023-02-14T04:35:22;13.63;;;9.13;;
56299;SDS011;42209;6.376;-10.782;2023-02-14T04:37:50;13.30;;;8.13;;
56299;SDS011;42209;6.376;-10.782;2023-02-14T04:40:19;13.43;;;7.10;;
56299;SDS011;42209;6.376;-10.782;2023-02-14T04:42:47;12.65;;;8.23;;
56299;SDS011;42209;6.376;-10.782;2023-02-14T04:45:15;13.45;;;8.63;;
56299;SDS011;42209;6.376;-10.782;2023-02-14T04:47:44;17.42;;;8.52;;
56299;SDS011;42209;6.376;-10.782;2023-02-14T04:50:12;12.45;;;8.55;;
56299;SDS011;42209;6.376;-10.782;2023-02-14T04:52:41;12.95;;;7.78;;
56299;SDS011;42209;6.376;-10.782;2023-02-14T04:55:09;13.77;;;7.85;;
56299;SDS011;42209;6.376;-10.782;2023-02-14T04:57:37;14.82;;;7.90;;
56299;SDS011;42209;6.376;-10.782;2023-02-14T05:00:06;15.63;;;9.13;;
56299;SDS011;42209;6.376;-10.782;2023-02-14T05:02:35;14.63;;;8.00;;
56299;SDS011;42209;6.376;-10.782;2023-02-14T05:05:03;14.65;;;7.60;;
56299;SDS011;42209;6.376;-10.782;2023-02-14T05:10:00;14.63;;;8.43;;
56299;SDS011;42209;6.376;-10.782;2023-02-14T05:12:29;17.58;;;8.38;;
56299;SDS011;42209;6.376;-10.782;2023-02-14T05:14:57;12.43;;;7.30;;
56299;SDS011;42209;6.376;-10.782;2023-02-14T05:17:25;14.82;;;8.57;;
56299;SDS011;42209;6.376;-10.782;2023-02-14T05:19:53;13.00;;;8.07;;
56299;SDS011;42209;6.376;-10.782;2023-02-14T05:22:22;14.45;;;9.13;;
56299;SDS011;42209;6.376;-10.782;2023-02-14T05:24:50;12.60;;;8.23;;
56299;SDS011;42209;6.376;-10.782;2023-02-14T05:27:18;12.90;;;8.57;;
56299;SDS011;42209;6.376;-10.782;2023-02-14T05:29:46;11.65;;;7.45;;
56299;SDS011;42209;6.376;-10.782;2023-02-14T05:32:15;13.88;;;8.57;;
56299;SDS011;42209;6.376;-10.782;2023-02-14T05:34:43;14.13;;;8.23;;
56299;SDS011;42209;6.376;-10.782;2023-02-14T05:37:12;16.08;;;8.95;;
56299;SDS011;42209;6.376;-10.782;2023-02-14T05:39:40;15.10;;;8.40;;
56299;SDS011;42209;6.376;-10.782;2023-02-14T05:42:08;16.27;;;8.43;;
56299;SDS011;42209;6.376;-10.782;2023-02-14T05:44:36;11.73;;;8.00;;
56299;SDS011;42209;6.376;-10.782;2023-02-14T05:47:05;12.70;;;8.00;;
56299;SDS011;42209;6.376;-10.782;2023-02-14T05:49:33;14.18;;;9.57;;
56299;SDS011;42209;6.376;-10.782;2023-02-14T05:52:08;14.85;;;8.05;;
56299;SDS011;42209;6.376;-10.782;2023-02-14T05:54:36;13.73;;;7.75;;
56299;SDS011;42209;6.376;-10.782;2023-02-14T05:57:05;11.13;;;7.50;;
56299;SDS011;42209;6.376;-10.782;2023-02-14T05:59:33;12.10;;;7.40;;
56299;SDS011;42209;6.376;-10.782;2023-02-14T06:02:01;14.52;;;8.27;;
56299;SDS011;42209;6.376;-10.782;2023-02-14T06:13:21;25.05;;;7.95;;
56299;SDS011;42209;6.376;-10.782;2023-02-14T06:15:49;17.40;;;9.07;;
56299;SDS011;42209;6.376;-10.782;2023-02-14T06:18:17;18.33;;;8.88;;
56299;SDS011;42209;6.376;-10.782;2023-02-14T06:20:46;14.70;;;9.55;;
56299;SDS011;42209;6.376;-10.782;2023-02-14T06:23:14;16.00;;;8.57;;
56299;SDS011;42209;6.376;-10.782;2023-02-14T06:25:42;15.35;;;8.68;;
56299;SDS011;42209;6.376;-10.782;2023-02-14T06:28:14;17.38;;;8.80;;
56299;SDS011;42209;6.376;-10.782;2023-02-14T06:30:42;13.63;;;8.98;;
56299;SDS011;42209;6.376;-10.782;2023-02-14T06:33:14;15.10;;;7.72;;
56299;SDS011;42209;6.376;-10.782;2023-02-14T06:35:43;15.35;;;8.57;;
56299;SDS011;42209;6.376;-10.782;2023-02-14T06:38:11;15.43;;;8.27;;
56299;SDS011;42209;6.376;-10.782;2023-02-14T06:40:39;14.40;;;8.10;;
56299;SDS011;42209;6.376;-10.782;2023-02-14T06:43:07;16.10;;;9.00;;
56299;SDS011;42209;6.376;-10.782;2023-02-14T06:45:35;15.15;;;9.32;;
56299;SDS011;42209;6.376;-10.782;2023-02-14T06:48:07;15.32;;;9.02;;
56299;SDS011;42209;6.376;-10.782;2023-02-14T06:50:35;13.88;;;8.50;;
56299;SDS011;42209;6.376;-10.782;2023-02-14T06:53:03;16.50;;;8.13;;
56299;SDS011;42209;6.376;-10.782;2023-02-14T06:55:32;13.35;;;7.90;;
56299;SDS011;42209;6.376;-10.782;2023-02-14T06:58:00;14.70;;;8.60;;
56299;SDS011;42209;6.376;-10.782;2023-02-14T07:00:28;12.93;;;7.25;;
56299;SDS011;42209;6.376;-10.782;2023-02-14T07:03:00;15.23;;;8.50;;
56299;SDS011;42209;6.376;-10.782;2023-02-14T07:05:32;14.25;;;7.68;;
56299;SDS011;42209;6.376;-10.782;2023-02-14T07:10:36;11.32;;;7.03;;
56299;SDS011;42209;6.376;-10.782;2023-02-14T07:15:33;11.40;;;7.97;;
56299;SDS011;42209;6.376;-10.782;2023-02-14T07:18:04;13.57;;;8.52;;
56299;SDS011;42209;6.376;-10.782;2023-02-14T07:20:38;14.00;;;8.07;;
56299;SDS011;42209;6.376;-10.782;2023-02-14T07:23:11;15.98;;;8.93;;
56299;SDS011;42209;6.376;-10.782;2023-02-14T07:25:53;14.40;;;8.73;;
56299;SDS011;42209;6.376;-10.782;2023-02-14T07:28:22;14.35;;;8.65;;
56299;SDS011;42209;6.376;-10.782;2023-02-14T07:30:50;17.70;;;8.57;;
56299;SDS011;42209;6.376;-10.782;2023-02-14T07:33:19;14.93;;;9.13;;
56299;SDS011;42209;6.376;-10.782;2023-02-14T07:35:51;23.25;;;9.50;;
56299;SDS011;42209;6.376;-10.782;2023-02-14T07:38:19;16.90;;;8.70;;
56299;SDS011;42209;6.376;-10.782;2023-02-14T07:40:47;18.30;;;8.98;;
56299;SDS011;42209;6.376;-10.782;2023-02-14T07:43:16;18.25;;;8.50;;
56299;SDS011;42209;6.376;-10.782;2023-02-14T07:45:46;18.30;;;9.15;;
56299;SDS011;42209;6.376;-10.782;2023-02-14T07:48:14;20.35;;;9.88;;
56299;SDS011;42209;6.376;-10.782;2023-02-14T07:50:42;17.17;;;8.30;;
56299;SDS011;42209;6.376;-10.782;2023-02-14T07:53:13;17.77;;;7.90;;
56299;SDS011;42209;6.376;-10.782;2023-02-14T07:55:42;15.93;;;9.07;;
56299;SDS011;42209;6.376;-10.782;2023-02-14T07:58:15;20.02;;;9.15;;
56299;SDS011;42209;6.376;-10.782;2023-02-14T08:00:43;16.50;;;8.20;;
56299;SDS011;42209;6.376;-10.782;2023-02-14T08:03:12;14.55;;;7.55;;
56299;SDS011;42209;6.376;-10.782;2023-02-14T08:05:40;16.80;;;8.57;;
56299;SDS011;42209;6.376;-10.782;2023-02-14T08:08:09;15.52;;;7.75;;
56299;SDS011;42209;6.376;-10.782;2023-02-14T08:10:37;15.80;;;8.43;;
56299;SDS011;42209;6.376;-10.782;2023-02-14T08:13:05;15.88;;;8.15;;
56299;SDS011;42209;6.376;-10.782;2023-02-14T08:15:34;16.08;;;8.80;;
56299;SDS011;42209;6.376;-10.782;2023-02-14T08:18:02;15.57;;;8.65;;
56299;SDS011;42209;6.376;-10.782;2023-02-14T08:20:30;16.17;;;7.78;;
56299;SDS011;42209;6.376;-10.782;2023-02-14T08:25:27;14.85;;;8.10;;
56299;SDS011;42209;6.376;-10.782;2023-02-14T08:27:55;17.67;;;8.95;;
56299;SDS011;42209;6.376;-10.782;2023-02-14T08:30:24;14.23;;;8.40;;
56299;SDS011;42209;6.376;-10.782;2023-02-14T08:32:52;16.25;;;8.52;;
56299;SDS011;42209;6.376;-10.782;2023-02-14T08:35:21;16.60;;;8.82;;
56299;SDS011;42209;6.376;-10.782;2023-02-14T08:37:51;16.88;;;9.30;;
56299;SDS011;42209;6.376;-10.782;2023-02-14T08:40:20;16.05;;;8.95;;
56299;SDS011;42209;6.376;-10.782;2023-02-14T08:42:48;19.30;;;9.20;;
56299;SDS011;42209;6.376;-10.782;2023-02-14T08:45:17;18.70;;;9.18;;
56299;SDS011;42209;6.376;-10.782;2023-02-14T08:47:48;17.95;;;9.65;;
56299;SDS011;42209;6.376;-10.782;2023-02-14T08:50:17;15.23;;;8.50;;
56299;SDS011;42209;6.376;-10.782;2023-02-14T08:55:13;17.40;;;8.23;;
56299;SDS011;42209;6.376;-10.782;2023-02-14T08:57:41;17.05;;;9.80;;
56299;SDS011;42209;6.376;-10.782;2023-02-14T09:00:10;22.08;;;11.15;;
56299;SDS011;42209;6.376;-10.782;2023-02-14T09:02:41;19.13;;;9.70;;
56299;SDS011;42209;6.376;-10.782;2023-02-14T09:05:09;22.25;;;9.20;;
56299;SDS011;42209;6.376;-10.782;2023-02-14T09:07:37;20.05;;;9.13;;
56299;SDS011;42209;6.376;-10.782;2023-02-14T09:10:06;27.65;;;11.25;;
56299;SDS011;42209;6.376;-10.782;2023-02-14T09:12:37;29.35;;;10.25;;
56299;SDS011;42209;6.376;-10.782;2023-02-14T09:15:07;25.85;;;9.52;;
56299;SDS011;42209;6.376;-10.782;2023-02-14T09:17:36;27.00;;;11.05;;
56299;SDS011;42209;6.376;-10.782;2023-02-14T09:20:07;25.52;;;10.95;;
56299;SDS011;42209;6.376;-10.782;2023-02-14T09:22:37;27.80;;;10.85;;
56299;SDS011;42209;6.376;-10.782;2023-02-14T09:25:09;30.80;;;10.90;;
56299;SDS011;42209;6.376;-10.782;2023-02-14T09:27:38;24.25;;;10.18;;
56299;SDS011;42209;6.376;-10.782;2023-02-14T09:30:08;24.40;;;10.43;;
56299;SDS011;42209;6.376;-10.782;2023-02-14T09:32:37;22.58;;;9.85;;
56299;SDS011;42209;6.376;-10.782;2023-02-14T09:35:08;24.65;;;9.55;;
56299;SDS011;42209;6.376;-10.782;2023-02-14T09:37:36;22.92;;;10.00;;
56299;SDS011;42209;6.376;-10.782;2023-02-14T09:40:05;24.58;;;9.93;;
56299;SDS011;42209;6.376;-10.782;2023-02-14T09:45:23;22.40;;;10.38;;
56299;SDS011;42209;6.376;-10.782;2023-02-14T09:47:58;19.65;;;9.48;;
56299;SDS011;42209;6.376;-10.782;2023-02-14T09:50:48;20.70;;;9.80;;
56299;SDS011;42209;6.376;-10.782;2023-02-14T09:53:28;22.98;;;8.40;;
56299;SDS011;42209;6.376;-10.782;2023-02-14T09:56:11;22.77;;;9.73;;
56299;SDS011;42209;6.376;-10.782;2023-02-14T09:59:23;20.42;;;9.48;;
56299;SDS011;42209;6.376;-10.782;2023-02-14T10:01:58;28.10;;;10.05;;
56299;SDS011;42209;6.376;-10.782;2023-02-14T10:10:27;21.73;;;9.38;;
56299;SDS011;42209;6.376;-10.782;2023-02-14T10:13:20;22.45;;;8.82;;
56299;SDS011;42209;6.376;-10.782;2023-02-14T10:18:39;23.60;;;8.32;;
56299;SDS011;42209;6.376;-10.782;2023-02-14T10:21:10;23.67;;;8.88;;
56299;SDS011;42209;6.376;-10.782;2023-02-14T10:24:02;19.30;;;8.38;;
56299;SDS011;42209;6.376;-10.782;2023-02-14T10:26:49;19.92;;;8.68;;
56299;SDS011;42209;6.376;-10.782;2023-02-14T10:29:19;21.48;;;9.15;;
56299;SDS011;42209;6.376;-10.782;2023-02-14T10:32:00;23.95;;;9.50;;
56299;SDS011;42209;6.376;-10.782;2023-02-14T10:34:45;17.05;;;8.85;;
56299;SDS011;42209;6.376;-10.782;2023-02-14T10:48:15;18.90;;;8.85;;
56299;SDS011;42209;6.376;-10.782;2023-02-14T10:54:01;18.73;;;8.48;;
56299;SDS011;42209;6.376;-10.782;2023-02-14T11:02:35;22.08;;;8.65;;
56299;SDS011;42209;6.376;-10.782;2023-02-14T11:05:07;22.45;;;8.40;;
56299;SDS011;42209;6.376;-10.782;2023-02-14T11:07:57;27.80;;;9.07;;
56299;SDS011;42209;6.376;-10.782;2023-02-14T11:10:27;19.25;;;9.23;;
56299;SDS011;42209;6.376;-10.782;2023-02-14T11:12:59;26.65;;;10.65;;
56299;SDS011;42209;6.376;-10.782;2023-02-14T11:15:34;20.60;;;9.48;;
56299;SDS011;42209;6.376;-10.782;2023-02-14T11:18:08;18.05;;;8.73;;
56299;SDS011;42209;6.376;-10.782;2023-02-14T11:20:44;18.58;;;9.13;;
56299;SDS011;42209;6.376;-10.782;2023-02-14T11:23:26;22.77;;;9.00;;
56299;SDS011;42209;6.376;-10.782;2023-02-14T11:26:04;20.00;;;8.23;;
56299;SDS011;42209;6.376;-10.782;2023-02-14T11:28:45;21.92;;;8.48;;
56299;SDS011;42209;6.376;-10.782;2023-02-14T11:31:39;21.38;;;8.60;;
56299;SDS011;42209;6.376;-10.782;2023-02-14T11:34:44;17.27;;;7.88;;
56299;SDS011;42209;6.376;-10.782;2023-02-14T11:40:22;21.13;;;8.93;;
56299;SDS011;42209;6.376;-10.782;2023-02-14T11:42:57;20.73;;;8.80;;
56299;SDS011;42209;6.376;-10.782;2023-02-14T11:45:43;18.08;;;8.40;;
56299;SDS011;42209;6.376;-10.782;2023-02-14T11:48:23;19.92;;;8.35;;
56299;SDS011;42209;6.376;-10.782;2023-02-14T11:51:08;17.20;;;7.90;;
56299;SDS011;42209;6.376;-10.782;2023-02-14T11:53:49;20.35;;;8.50;;
56299;SDS011;42209;6.376;-10.782;2023-02-14T11:56:21;21.15;;;9.90;;
56299;SDS011;42209;6.376;-10.782;2023-02-14T11:58:54;21.30;;;8.27;;
56299;SDS011;42209;6.376;-10.782;2023-02-14T12:01:30;22.98;;;8.00;;
56299;SDS011;42209;6.376;-10.782;2023-02-14T12:04:02;18.58;;;8.02;;
56299;SDS011;42209;6.376;-10.782;2023-02-14T12:06:41;16.05;;;7.32;;
56299;SDS011;42209;6.376;-10.782;2023-02-14T12:11:39;16.40;;;7.05;;
56299;SDS011;42209;6.376;-10.782;2023-02-14T12:14:18;15.45;;;6.93;;
56299;SDS011;42209;6.376;-10.782;2023-02-14T12:16:56;21.02;;;7.65;;
56299;SDS011;42209;6.376;-10.782;2023-02-14T12:19:59;21.10;;;8.85;;
56299;SDS011;42209;6.376;-10.782;2023-02-14T12:25:32;20.60;;;9.40;;
56299;SDS011;42209;6.376;-10.782;2023-02-14T12:28:11;20.25;;;7.60;;
56299;SDS011;42209;6.376;-10.782;2023-02-14T12:30:44;18.90;;;8.48;;
56299;SDS011;42209;6.376;-10.782;2023-02-14T12:38:24;19.98;;;7.93;;
56299;SDS011;42209;6.376;-10.782;2023-02-14T12:44:12;19.10;;;7.85;;
56299;SDS011;42209;6.376;-10.782;2023-02-14T12:55:35;17.05;;;7.55;;
56299;SDS011;42209;6.376;-10.782;2023-02-14T12:58:53;24.15;;;8.88;;
56299;SDS011;42209;6.376;-10.782;2023-02-14T13:11:12;23.35;;;9.02;;
56299;SDS011;42209;6.376;-10.782;2023-02-14T13:13:50;19.77;;;8.68;;
56299;SDS011;42209;6.376;-10.782;2023-02-14T13:21:48;20.17;;;8.18;;
56299;SDS011;42209;6.376;-10.782;2023-02-14T13:24:19;19.98;;;8.20;;
56299;SDS011;42209;6.376;-10.782;2023-02-14T13:26:50;21.88;;;9.15;;
56299;SDS011;42209;6.376;-10.782;2023-02-14T13:29:23;29.13;;;9.45;;
56299;SDS011;42209;6.376;-10.782;2023-02-14T13:31:57;23.10;;;8.32;;
56299;SDS011;42209;6.376;-10.782;2023-02-14T13:34:32;22.38;;;9.15;;
56299;SDS011;42209;6.376;-10.782;2023-02-14T13:37:05;22.10;;;8.88;;
56299;SDS011;42209;6.376;-10.782;2023-02-14T13:39:39;24.52;;;9.75;;
56299;SDS011;42209;6.376;-10.782;2023-02-14T13:43:00;23.30;;;8.32;;
56299;SDS011;42209;6.376;-10.782;2023-02-14T14:01:28;26.58;;;9.43;;
56299;SDS011;42209;6.376;-10.782;2023-02-14T14:17:36;24.60;;;10.10;;
56299;SDS011;42209;6.376;-10.782;2023-02-14T14:22:47;25.10;;;9.13;;
56299;SDS011;42209;6.376;-10.782;2023-02-14T14:28:11;26.83;;;8.57;;
56299;SDS011;42209;6.376;-10.782;2023-02-14T14:30:47;25.77;;;10.20;;
56299;SDS011;42209;6.376;-10.782;2023-02-14T14:35:59;21.77;;;8.20;;
56299;SDS011;42209;6.376;-10.782;2023-02-14T14:38:34;22.10;;;9.02;;
56299;SDS011;42209;6.376;-10.782;2023-02-14T14:41:13;25.17;;;9.85;;
56299;SDS011;42209;6.376;-10.782;2023-02-14T14:43:42;26.38;;;10.52;;
56299;SDS011;42209;6.376;-10.782;2023-02-14T14:46:10;27.10;;;9.77;;
56299;SDS011;42209;6.376;-10.782;2023-02-14T14:48:42;19.52;;;8.60;;
56299;SDS011;42209;6.376;-10.782;2023-02-14T14:51:32;23.80;;;9.52;;
56299;SDS011;42209;6.376;-10.782;2023-02-14T14:54:23;21.42;;;9.93;;
56299;SDS011;42209;6.376;-10.782;2023-02-14T14:59:32;27.83;;;9.98;;
56299;SDS011;42209;6.376;-10.782;2023-02-14T15:02:02;31.73;;;10.27;;
56299;SDS011;42209;6.376;-10.782;2023-02-14T15:04:47;23.50;;;10.60;;
56299;SDS011;42209;6.376;-10.782;2023-02-14T15:07:23;26.17;;;9.07;;
56299;SDS011;42209;6.376;-10.782;2023-02-14T15:10:00;25.17;;;10.55;;
56299;SDS011;42209;6.376;-10.782;2023-02-14T15:13:43;28.10;;;10.25;;
56299;SDS011;42209;6.376;-10.782;2023-02-14T15:16:19;23.73;;;9.93;;
56299;SDS011;42209;6.376;-10.782;2023-02-14T15:18:50;23.75;;;8.98;;
56299;SDS011;42209;6.376;-10.782;2023-02-14T15:21:24;26.67;;;10.13;;
56299;SDS011;42209;6.376;-10.782;2023-02-14T15:23:52;27.83;;;10.32;;
56299;SDS011;42209;6.376;-10.782;2023-02-14T15:26:23;26.60;;;10.90;;
56299;SDS011;42209;6.376;-10.782;2023-02-14T15:28:58;25.08;;;9.82;;
56299;SDS011;42209;6.376;-10.782;2023-02-14T15:31:29;23.85;;;11.32;;
56299;SDS011;42209;6.376;-10.782;2023-02-14T15:34:03;25.65;;;10.27;;
56299;SDS011;42209;6.376;-10.782;2023-02-14T15:36:33;30.85;;;11.48;;
56299;SDS011;42209;6.376;-10.782;2023-02-14T15:39:03;24.30;;;11.07;;
56299;SDS011;42209;6.376;-10.782;2023-02-14T15:41:34;26.42;;;8.90;;
56299;SDS011;42209;6.376;-10.782;2023-02-14T15:46:35;26.80;;;11.65;;
56299;SDS011;42209;6.376;-10.782;2023-02-14T15:49:09;23.77;;;10.20;;
56299;SDS011;42209;6.376;-10.782;2023-02-14T15:51:41;27.35;;;10.05;;
56299;SDS011;42209;6.376;-10.782;2023-02-14T15:59:28;27.75;;;11.00;;
56299;SDS011;42209;6.376;-10.782;2023-02-14T16:02:16;30.42;;;11.30;;
56299;SDS011;42209;6.376;-10.782;2023-02-14T16:05:17;31.48;;;13.30;;
56299;SDS011;42209;6.376;-10.782;2023-02-14T16:13:17;29.35;;;12.43;;
56299;SDS011;42209;6.376;-10.782;2023-02-14T16:15:56;25.92;;;10.45;;
56299;SDS011;42209;6.376;-10.782;2023-02-14T16:21:17;30.33;;;12.45;;
56299;SDS011;42209;6.376;-10.782;2023-02-14T16:29:09;34.25;;;12.57;;
56299;SDS011;42209;6.376;-10.782;2023-02-14T16:31:57;36.45;;;13.27;;
56299;SDS011;42209;6.376;-10.782;2023-02-14T16:34:42;36.58;;;13.18;;
56299;SDS011;42209;6.376;-10.782;2023-02-14T16:37:44;39.40;;;15.10;;
56299;SDS011;42209;6.376;-10.782;2023-02-14T16:40:05;39.25;;;15.40;;
56299;SDS011;42209;6.376;-10.782;2023-02-14T16:42:40;45.15;;;15.75;;
56299;SDS011;42209;6.376;-10.782;2023-02-14T16:45:17;44.83;;;16.20;;
56299;SDS011;42209;6.376;-10.782;2023-02-14T16:47:46;46.55;;;16.63;;
56299;SDS011;42209;6.376;-10.782;2023-02-14T16:50:15;48.15;;;14.55;;
56299;SDS011;42209;6.376;-10.782;2023-02-14T16:52:43;42.47;;;14.75;;
56299;SDS011;42209;6.376;-10.782;2023-02-14T16:55:16;45.08;;;15.07;;
56299;SDS011;42209;6.376;-10.782;2023-02-14T16:57:45;47.15;;;15.65;;
56299;SDS011;42209;6.376;-10.782;2023-02-14T17:00:15;47.78;;;16.58;;
56299;SDS011;42209;6.376;-10.782;2023-02-14T17:02:44;45.88;;;16.92;;
56299;SDS011;42209;6.376;-10.782;2023-02-14T17:05:12;46.65;;;17.85;;
56299;SDS011;42209;6.376;-10.782;2023-02-14T17:07:41;54.33;;;16.95;;
56299;SDS011;42209;6.376;-10.782;2023-02-14T17:10:13;51.00;;;17.70;;
56299;SDS011;42209;6.376;-10.782;2023-02-14T17:12:46;51.78;;;17.67;;
56299;SDS011;42209;6.376;-10.782;2023-02-14T17:15:17;48.40;;;15.75;;
56299;SDS011;42209;6.376;-10.782;2023-02-14T17:17:47;55.17;;;18.17;;
56299;SDS011;42209;6.376;-10.782;2023-02-14T17:20:18;46.42;;;16.67;;
56299;SDS011;42209;6.376;-10.782;2023-02-14T17:22:46;49.70;;;17.25;;
56299;SDS011;42209;6.376;-10.782;2023-02-14T17:25:15;52.75;;;17.45;;
56299;SDS011;42209;6.376;-10.782;2023-02-14T17:28:38;48.40;;;16.30;;
56299;SDS011;42209;6.376;-10.782;2023-02-14T17:31:06;50.60;;;15.90;;
56299;SDS011;42209;6.376;-10.782;2023-02-14T17:33:35;48.40;;;17.48;;
56299;SDS011;42209;6.376;-10.782;2023-02-14T17:36:04;47.05;;;16.00;;
56299;SDS011;42209;6.376;-10.782;2023-02-14T17:38:36;48.55;;;15.45;;
56299;SDS011;42209;6.376;-10.782;2023-02-14T17:41:10;51.63;;;16.45;;
56299;SDS011;42209;6.376;-10.782;2023-02-14T17:43:45;47.72;;;16.67;;
56299;SDS011;42209;6.376;-10.782;2023-02-14T17:46:14;46.58;;;16.13;;
56299;SDS011;42209;6.376;-10.782;2023-02-14T17:48:44;47.33;;;15.55;;
56299;SDS011;42209;6.376;-10.782;2023-02-14T17:51:13;48.50;;;16.45;;
56299;SDS011;42209;6.376;-10.782;2023-02-14T17:53:43;45.70;;;15.93;;
56299;SDS011;42209;6.376;-10.782;2023-02-14T17:56:12;39.63;;;13.02;;
56299;SDS011;42209;6.376;-10.782;2023-02-14T17:58:42;49.28;;;14.80;;
56299;SDS011;42209;6.376;-10.782;2023-02-14T18:01:10;45.53;;;13.93;;
56299;SDS011;42209;6.376;-10.782;2023-02-14T18:03:39;32.78;;;12.95;;
56299;SDS011;42209;6.376;-10.782;2023-02-14T18:06:08;39.42;;;14.60;;
56299;SDS011;42209;6.376;-10.782;2023-02-14T18:11:07;35.25;;;13.25;;
56299;SDS011;42209;6.376;-10.782;2023-02-14T18:13:37;39.38;;;14.88;;
56299;SDS011;42209;6.376;-10.782;2023-02-14T18:16:07;37.45;;;14.07;;
56299;SDS011;42209;6.376;-10.782;2023-02-14T18:18:38;33.35;;;13.13;;